createdAt,value
2022-12-31T00:01:56.099Z,26.67
2022-12-31T00:04:23.971Z,28.40
2022-12-31T00:06:51.756Z,29.00
2022-12-31T00:09:20.978Z,29.70
2022-12-31T00:11:49.057Z,28.63
2022-12-31T00:14:16.866Z,30.33
2022-12-31T00:16:44.740Z,28.67
2022-12-31T00:19:13.223Z,29.20
2022-12-31T00:21:41.638Z,27.30
2022-12-31T00:24:12.002Z,27.53
2022-12-31T00:26:41.245Z,28.30
2022-12-31T00:29:09.037Z,24.60
2022-12-31T00:31:38.918Z,24.90
2022-12-31T00:34:07.370Z,24.43
2022-12-31T00:36:37.755Z,25.80
2022-12-31T00:39:08.698Z,24.90
2022-12-31T00:41:37.791Z,26.10
2022-12-31T00:44:07.107Z,26.73
2022-12-31T00:49:01.605Z,24.00
2022-12-31T00:51:30.255Z,25.50
2022-12-31T00:53:58.543Z,24.87
2022-12-31T00:56:28.546Z,23.77
2022-12-31T00:58:57.451Z,26.57
2022-12-31T01:01:28.361Z,24.37
2022-12-31T01:03:59.513Z,22.70
2022-12-31T01:06:27.749Z,23.60
2022-12-31T01:08:56.280Z,26.50
2022-12-31T01:11:29.233Z,21.50
2022-12-31T01:13:59.995Z,24.50
2022-12-31T01:16:31.765Z,22.80
2022-12-31T01:19:00.683Z,23.90
2022-12-31T01:21:29.681Z,22.97
2022-12-31T01:23:58.526Z,23.63
2022-12-31T01:26:26.977Z,23.93
2022-12-31T01:28:55.225Z,24.57
2022-12-31T01:31:24.459Z,24.03
2022-12-31T01:33:54.263Z,23.30
2022-12-31T01:36:26.179Z,26.07
2022-12-31T01:38:55.118Z,22.10
2022-12-31T01:41:25.268Z,22.30
2022-12-31T01:43:55.228Z,22.63
2022-12-31T01:46:28.408Z,22.27
2022-12-31T01:49:01.773Z,22.90
2022-12-31T01:51:33.804Z,22.50
2022-12-31T01:54:03.811Z,23.13
2022-12-31T01:56:31.937Z,22.67
2022-12-31T01:59:00.922Z,22.50
2022-12-31T02:01:31.308Z,22.10
2022-12-31T02:04:07.558Z,22.97
2022-12-31T02:06:39.548Z,23.90
2022-12-31T02:09:08.651Z,25.07
2022-12-31T02:11:38.067Z,25.40
2022-12-31T02:14:09.608Z,24.20
2022-12-31T02:16:45.823Z,23.63
2022-12-31T02:19:47.347Z,22.37
2022-12-31T02:22:26.640Z,23.70
2022-12-31T02:25:14.652Z,24.33
2022-12-31T02:27:59.811Z,24.70
2022-12-31T02:30:33.569Z,23.77
2022-12-31T02:33:11.582Z,23.40
2022-12-31T02:35:49.351Z,24.17
2022-12-31T02:38:20.816Z,22.53
2022-12-31T02:40:49.266Z,22.40
2022-12-31T02:43:17.222Z,24.60
2022-12-31T02:45:50.940Z,23.10
2022-12-31T02:48:36.900Z,23.23
2022-12-31T02:51:19.811Z,24.57
2022-12-31T02:54:18.775Z,22.80
2022-12-31T02:56:54.255Z,22.83
2022-12-31T02:59:44.542Z,23.70
2022-12-31T03:02:19.518Z,22.77
2022-12-31T03:04:52.390Z,22.47
2022-12-31T03:07:23.036Z,23.30
2022-12-31T03:09:51.808Z,22.60
2022-12-31T03:12:39.578Z,23.20
2022-12-31T03:15:19.806Z,26.03
2022-12-31T03:17:52.236Z,23.80
2022-12-31T03:20:38.081Z,23.20
2022-12-31T03:23:07.693Z,23.33
2022-12-31T03:25:35.280Z,22.83
2022-12-31T03:28:05.645Z,24.87
2022-12-31T03:30:34.190Z,25.70
2022-12-31T03:33:05.018Z,23.20
2022-12-31T03:35:35.616Z,24.30
2022-12-31T03:38:04.189Z,25.17
2022-12-31T03:40:34.869Z,21.90
2022-12-31T03:43:02.763Z,23.60
2022-12-31T03:45:30.775Z,22.57
2022-12-31T03:47:58.947Z,19.70
2022-12-31T03:50:28.494Z,22.10
2022-12-31T03:52:56.484Z,21.60
2022-12-31T03:55:24.304Z,21.27
2022-12-31T03:57:52.239Z,19.93
2022-12-31T04:00:22.775Z,21.80
2022-12-31T04:02:51.254Z,18.97
2022-12-31T04:05:20.100Z,20.53
2022-12-31T04:07:51.966Z,19.20
2022-12-31T04:10:21.124Z,20.30
2022-12-31T04:12:50.045Z,20.23
2022-12-31T04:15:20.675Z,21.50
2022-12-31T04:17:49.181Z,19.57
2022-12-31T04:20:17.437Z,19.50
2022-12-31T04:22:45.307Z,19.57
2022-12-31T04:25:14.721Z,21.60
2022-12-31T04:27:44.074Z,22.90
2022-12-31T04:30:13.506Z,24.47
2022-12-31T04:32:41.570Z,24.20
2022-12-31T04:35:10.730Z,25.70
2022-12-31T04:37:38.631Z,26.90
2022-12-31T04:40:07.792Z,26.73
2022-12-31T04:42:37.280Z,27.00
2022-12-31T04:45:06.025Z,26.40
2022-12-31T04:47:33.928Z,25.30
2022-12-31T04:50:01.729Z,25.03
2022-12-31T04:52:29.601Z,25.50
2022-12-31T04:54:57.427Z,26.20
2022-12-31T04:57:25.395Z,26.57
2022-12-31T04:59:54.575Z,27.07
2022-12-31T05:02:22.654Z,27.40
2022-12-31T05:04:50.630Z,24.90
2022-12-31T05:07:18.961Z,24.57
2022-12-31T05:09:46.863Z,26.90
2022-12-31T05:12:15.813Z,24.93
2022-12-31T05:14:43.711Z,26.60
2022-12-31T05:17:12.951Z,24.13
2022-12-31T05:19:40.746Z,24.70
2022-12-31T05:22:26.386Z,24.17
2022-12-31T05:24:54.271Z,23.13
2022-12-31T05:27:22.631Z,24.30
2022-12-31T05:29:50.483Z,24.43
2022-12-31T05:32:19.737Z,24.23
2022-12-31T05:34:48.296Z,23.00
2022-12-31T05:37:16.083Z,24.93
2022-12-31T05:39:43.853Z,25.37
2022-12-31T05:42:11.647Z,25.73
2022-12-31T05:44:39.489Z,24.37
2022-12-31T05:47:07.301Z,25.97
2022-12-31T05:49:36.447Z,25.33
2022-12-31T05:52:04.492Z,25.30
2022-12-31T05:54:32.398Z,25.63
2022-12-31T05:57:00.422Z,23.97
2022-12-31T05:59:28.342Z,27.00
2022-12-31T06:01:56.491Z,26.10
2022-12-31T06:04:24.723Z,25.07
2022-12-31T06:06:53.998Z,25.97
2022-12-31T06:09:22.100Z,25.87
2022-12-31T06:11:50.012Z,25.43
2022-12-31T06:14:18.203Z,24.73
2022-12-31T06:16:46.058Z,29.13
2022-12-31T06:19:13.927Z,26.37
2022-12-31T06:21:41.734Z,27.50
2022-12-31T06:24:10.986Z,25.87
2022-12-31T06:26:38.845Z,25.30
2022-12-31T06:29:06.701Z,27.17
2022-12-31T06:31:34.635Z,26.40
2022-12-31T06:34:02.538Z,24.43
2022-12-31T06:36:30.376Z,24.67
2022-12-31T06:38:58.154Z,23.90
2022-12-31T06:41:27.314Z,27.03
2022-12-31T06:43:55.116Z,24.67
2022-12-31T06:46:22.970Z,24.67
2022-12-31T06:48:50.818Z,24.47
2022-12-31T06:51:21.143Z,26.47
2022-12-31T06:53:50.664Z,23.60
2022-12-31T06:56:21.587Z,25.10
2022-12-31T06:58:51.681Z,23.70
2022-12-31T07:01:50.396Z,26.50
2022-12-31T07:04:42.791Z,25.53
2022-12-31T07:07:16.985Z,25.20
2022-12-31T07:09:56.705Z,24.53
2022-12-31T07:12:37.516Z,25.07
2022-12-31T07:15:13.895Z,24.67
2022-12-31T07:17:49.546Z,27.70
2022-12-31T07:20:19.563Z,28.07
2022-12-31T07:22:48.331Z,26.33
2022-12-31T07:25:17.928Z,26.37
2022-12-31T07:28:00.202Z,26.90
2022-12-31T07:30:37.450Z,27.23
2022-12-31T07:33:31.127Z,26.40
2022-12-31T07:36:16.925Z,25.83
2022-12-31T07:38:57.506Z,26.17
2022-12-31T07:41:42.353Z,25.30
2022-12-31T07:44:29.453Z,25.60
2022-12-31T07:47:01.335Z,26.73
2022-12-31T07:49:31.114Z,26.40
2022-12-31T07:51:59.566Z,24.70
2022-12-31T07:54:27.392Z,26.87
2022-12-31T07:56:55.341Z,27.10
2022-12-31T07:59:37.084Z,24.40
2022-12-31T08:02:15.093Z,26.13
2022-12-31T08:04:51.557Z,25.03
2022-12-31T08:07:30.944Z,24.87
2022-12-31T08:10:14.045Z,25.93
2022-12-31T08:12:47.955Z,24.83
2022-12-31T08:15:18.252Z,26.27
2022-12-31T08:17:47.918Z,25.20
2022-12-31T08:20:17.750Z,26.10
2022-12-31T08:23:11.238Z,26.70
2022-12-31T08:25:47.286Z,26.40
2022-12-31T08:28:26.176Z,27.87
2022-12-31T08:31:02.685Z,28.23
2022-12-31T08:33:39.873Z,25.77
2022-12-31T08:36:16.548Z,26.80
2022-12-31T08:38:51.449Z,25.27
2022-12-31T08:41:28.476Z,28.07
2022-12-31T08:44:05.515Z,26.27
2022-12-31T08:46:45.610Z,28.03
2022-12-31T08:49:15.752Z,27.83
2022-12-31T08:51:44.025Z,29.70
2022-12-31T08:54:13.176Z,27.47
2022-12-31T08:56:50.454Z,28.10
2022-12-31T08:59:33.593Z,29.57
2022-12-31T09:02:23.682Z,29.90
2022-12-31T09:05:05.772Z,29.17
2022-12-31T09:07:39.432Z,27.77
2022-12-31T09:10:18.397Z,26.20
2022-12-31T09:12:59.447Z,26.90
2022-12-31T09:15:34.422Z,28.00
2022-12-31T09:18:02.890Z,27.53
2022-12-31T09:20:43.701Z,27.50
2022-12-31T09:23:13.458Z,27.57
2022-12-31T09:25:47.500Z,27.07
2022-12-31T09:28:19.651Z,24.73
2022-12-31T09:30:55.725Z,25.97
2022-12-31T09:33:37.686Z,26.67
2022-12-31T09:36:11.394Z,26.53
2022-12-31T09:38:47.121Z,28.87
2022-12-31T09:41:17.395Z,27.20
2022-12-31T09:44:16.273Z,26.80
2022-12-31T09:47:12.232Z,27.07
2022-12-31T09:50:18.039Z,28.57
2022-12-31T09:53:13.409Z,28.30
2022-12-31T09:55:49.551Z,29.07
2022-12-31T09:58:35.608Z,28.50
2022-12-31T10:01:14.953Z,28.53
2022-12-31T10:04:10.626Z,30.33
2022-12-31T10:06:47.601Z,28.07
2022-12-31T10:09:35.264Z,27.63
2022-12-31T10:12:22.876Z,27.67
2022-12-31T10:15:09.954Z,26.20
2022-12-31T10:17:53.296Z,25.40
2022-12-31T10:20:51.910Z,25.77
2022-12-31T10:23:47.685Z,25.37
2022-12-31T10:26:38.651Z,25.07
2022-12-31T10:29:17.868Z,26.90
2022-12-31T10:31:56.708Z,29.60
2022-12-31T10:34:27.978Z,28.50
2022-12-31T10:37:00.660Z,28.37
2022-12-31T10:39:39.912Z,27.63
2022-12-31T10:42:51.588Z,29.40
2022-12-31T10:45:45.237Z,29.80
2022-12-31T10:48:44.242Z,31.77
2022-12-31T10:51:45.616Z,30.20
2022-12-31T10:54:52.070Z,33.30
2022-12-31T10:58:04.244Z,30.60
2022-12-31T11:00:39.457Z,28.43
2022-12-31T11:03:48.352Z,28.77
2022-12-31T11:06:52.754Z,28.90
2022-12-31T11:09:51.239Z,28.60
2022-12-31T11:12:38.209Z,29.60
2022-12-31T11:15:32.554Z,29.07
2022-12-31T11:18:13.804Z,29.33
2022-12-31T11:21:00.221Z,27.77
2022-12-31T11:23:38.010Z,32.67
2022-12-31T11:26:23.145Z,29.40
2022-12-31T11:29:05.728Z,28.80
2022-12-31T11:31:46.505Z,26.67
2022-12-31T11:34:35.214Z,26.57
2022-12-31T11:37:19.423Z,26.80
2022-12-31T11:40:00.534Z,25.67
2022-12-31T11:42:41.456Z,24.33
2022-12-31T11:45:16.224Z,25.10
2022-12-31T11:51:00.419Z,19.73
2022-12-31T11:53:46.083Z,22.00
2022-12-31T11:56:18.262Z,23.47
2022-12-31T11:58:49.302Z,21.70
2022-12-31T12:01:23.171Z,21.70
2022-12-31T12:03:52.484Z,22.60
2022-12-31T12:06:30.593Z,23.00
2022-12-31T12:09:04.155Z,22.20
2022-12-31T12:11:35.657Z,22.37
2022-12-31T12:14:19.945Z,22.47
2022-12-31T12:16:48.056Z,19.90
2022-12-31T12:19:22.549Z,21.20
2022-12-31T12:21:51.231Z,21.27
2022-12-31T12:24:21.437Z,21.67
2022-12-31T12:26:49.550Z,18.90
2022-12-31T12:29:20.840Z,19.90
2022-12-31T12:32:00.755Z,20.63
2022-12-31T12:34:32.716Z,20.00
2022-12-31T12:37:01.333Z,19.70
2022-12-31T12:39:31.079Z,18.20
2022-12-31T12:42:04.300Z,21.03
2022-12-31T12:44:32.859Z,19.90
2022-12-31T12:47:04.432Z,18.60
2022-12-31T12:49:39.867Z,20.03
2022-12-31T12:52:20.630Z,20.20
2022-12-31T12:55:05.229Z,20.63
2022-12-31T12:57:39.881Z,20.67
2022-12-31T13:00:17.865Z,19.50
2022-12-31T13:03:12.327Z,21.27
2022-12-31T13:05:52.998Z,23.23
2022-12-31T13:08:35.472Z,21.77
2022-12-31T13:11:26.214Z,20.57
2022-12-31T13:14:00.863Z,20.10
2022-12-31T13:16:37.986Z,19.27
2022-12-31T13:19:14.306Z,20.30
2022-12-31T13:21:51.752Z,18.83
2022-12-31T13:24:34.392Z,19.40
2022-12-31T13:27:09.782Z,19.70
2022-12-31T13:29:40.877Z,21.00
2022-12-31T13:32:13.590Z,21.40
2022-12-31T13:34:45.466Z,19.33
2022-12-31T13:37:26.009Z,22.10
2022-12-31T13:40:00.663Z,20.93
2022-12-31T13:42:36.002Z,21.37
2022-12-31T13:45:07.590Z,22.37
2022-12-31T13:47:40.689Z,22.73
2022-12-31T13:50:18.623Z,22.73
2022-12-31T13:52:51.298Z,22.40
2022-12-31T13:55:24.010Z,21.40
2022-12-31T13:57:55.765Z,25.03
2022-12-31T14:00:25.539Z,23.47
2022-12-31T14:03:03.434Z,21.57
2022-12-31T14:05:36.215Z,23.10
2022-12-31T14:08:07.302Z,24.10
2022-12-31T14:10:45.643Z,22.53
2022-12-31T14:13:34.525Z,22.23
2022-12-31T14:16:16.182Z,21.10
2022-12-31T14:18:53.575Z,20.53
2022-12-31T14:21:25.853Z,22.00
2022-12-31T14:24:02.738Z,22.03
2022-12-31T14:26:35.048Z,23.63
2022-12-31T14:29:19.069Z,22.37
2022-12-31T14:32:08.424Z,23.20
2022-12-31T14:34:49.604Z,24.27
2022-12-31T14:37:30.738Z,22.83
2022-12-31T14:40:15.770Z,21.77
2022-12-31T14:42:53.897Z,22.57
2022-12-31T14:45:33.594Z,22.63
2022-12-31T14:48:11.796Z,23.50
2022-12-31T14:50:39.973Z,21.73
2022-12-31T14:53:10.040Z,25.10
2022-12-31T14:55:41.676Z,23.87
2022-12-31T14:58:28.244Z,25.20
2022-12-31T15:00:59.211Z,25.83
2022-12-31T15:03:37.923Z,25.10
2022-12-31T15:06:48.359Z,27.07
2022-12-31T15:09:35.543Z,26.57
2022-12-31T15:12:21.970Z,27.13
2022-12-31T15:15:07.125Z,27.43
2022-12-31T15:17:49.918Z,23.23
2022-12-31T15:20:36.276Z,23.40
2022-12-31T15:23:15.652Z,25.63
2022-12-31T15:26:03.591Z,24.50
2022-12-31T15:28:36.243Z,25.30
2022-12-31T15:31:19.070Z,23.87
2022-12-31T15:33:57.760Z,23.30
2022-12-31T15:36:27.570Z,24.70
2022-12-31T15:39:07.453Z,24.77
2022-12-31T15:42:03.112Z,25.20
2022-12-31T15:44:35.702Z,23.80
2022-12-31T15:47:17.187Z,23.27
2022-12-31T15:49:47.931Z,21.80
2022-12-31T15:52:19.106Z,21.90
2022-12-31T15:54:50.721Z,22.30
2022-12-31T15:57:25.071Z,23.20
2022-12-31T15:59:59.268Z,22.67
2022-12-31T16:02:29.830Z,22.37
2022-12-31T16:04:58.465Z,26.10
2022-12-31T16:07:28.397Z,26.40
2022-12-31T16:09:59.535Z,27.70
2022-12-31T16:12:33.682Z,29.30
2022-12-31T16:15:04.968Z,25.93
2022-12-31T16:17:34.988Z,26.83
2022-12-31T16:20:22.485Z,29.63
2022-12-31T16:22:54.750Z,31.90
2022-12-31T16:25:31.893Z,30.00
2022-12-31T16:28:03.606Z,27.43
2022-12-31T16:30:35.712Z,26.27
2022-12-31T16:33:06.563Z,24.53
2022-12-31T16:35:37.341Z,28.93
2022-12-31T16:38:14.062Z,37.00
2022-12-31T16:40:43.974Z,36.00
2022-12-31T16:43:26.887Z,28.03
2022-12-31T16:45:59.218Z,29.77
2022-12-31T16:48:27.717Z,30.43
2022-12-31T16:50:57.888Z,30.63
2022-12-31T16:53:28.214Z,33.83
2022-12-31T16:56:01.154Z,33.47
2022-12-31T16:58:32.131Z,36.57
2022-12-31T17:01:13.340Z,37.20
2022-12-31T17:03:46.795Z,35.00
2022-12-31T17:06:17.615Z,34.90
2022-12-31T17:08:48.728Z,34.83
2022-12-31T17:11:24.104Z,34.70
2022-12-31T17:13:57.552Z,31.40
2022-12-31T17:16:27.335Z,30.10
2022-12-31T17:18:55.720Z,35.00
2022-12-31T17:21:27.108Z,39.20
2022-12-31T17:23:57.707Z,39.10
2022-12-31T17:26:28.524Z,45.47
2022-12-31T17:28:58.858Z,95.80
2022-12-31T17:31:36.688Z,78.67
2022-12-31T17:34:21.540Z,59.53
2022-12-31T17:37:02.414Z,54.33
2022-12-31T17:39:44.227Z,49.00
2022-12-31T17:42:13.658Z,42.50
2022-12-31T17:44:44.760Z,37.10
2022-12-31T17:47:17.206Z,37.03
2022-12-31T17:49:46.833Z,37.93
2022-12-31T17:52:16.054Z,37.17
2022-12-31T17:54:43.939Z,34.17
2022-12-31T17:57:24.531Z,61.07
2022-12-31T17:59:52.558Z,56.57
2022-12-31T18:02:21.961Z,40.70
2022-12-31T18:04:49.912Z,38.40
2022-12-31T18:07:18.051Z,35.60
2022-12-31T18:09:46.095Z,38.60
2022-12-31T18:12:15.794Z,40.00
2022-12-31T18:14:46.555Z,43.90
2022-12-31T18:17:16.562Z,42.40
2022-12-31T18:20:04.258Z,43.87
2022-12-31T18:22:33.152Z,41.47
2022-12-31T18:25:01.009Z,43.10
2022-12-31T18:27:30.562Z,51.77
2022-12-31T18:30:04.502Z,94.00
2022-12-31T18:32:34.010Z,74.93
2022-12-31T18:35:03.317Z,80.80
2022-12-31T18:37:33.232Z,77.00
2022-12-31T18:40:01.121Z,72.20
2022-12-31T18:42:29.664Z,59.97
2022-12-31T18:44:57.521Z,79.03
2022-12-31T18:47:25.392Z,70.30
2022-12-31T18:49:53.251Z,57.47
2022-12-31T18:52:25.067Z,75.23
2022-12-31T18:54:53.054Z,51.70
2022-12-31T18:57:20.863Z,51.27
2022-12-31T18:59:48.732Z,57.17
2022-12-31T19:02:19.357Z,43.30
2022-12-31T19:04:48.086Z,48.47
2022-12-31T19:07:15.917Z,48.73
2022-12-31T19:09:46.701Z,52.63
2022-12-31T19:12:18.197Z,41.13
2022-12-31T19:14:46.133Z,40.40
2022-12-31T19:17:14.468Z,39.63
2022-12-31T19:19:42.298Z,38.30
2022-12-31T19:22:15.700Z,36.60
2022-12-31T19:24:44.947Z,43.00
2022-12-31T19:27:13.157Z,42.50
2022-12-31T19:29:41.053Z,48.80
2022-12-31T19:32:09.002Z,50.50
2022-12-31T19:34:36.920Z,50.50
2022-12-31T19:37:04.910Z,52.57
2022-12-31T19:39:32.870Z,55.57
2022-12-31T19:42:02.176Z,54.07
2022-12-31T19:44:30.064Z,44.60
2022-12-31T19:46:58.015Z,47.20
2022-12-31T19:49:25.879Z,52.70
2022-12-31T19:51:53.700Z,50.60
2022-12-31T19:54:22.867Z,47.10
2022-12-31T19:56:52.066Z,49.20
2022-12-31T19:59:21.658Z,54.40
2022-12-31T20:01:49.593Z,55.23
2022-12-31T20:04:18.298Z,52.03
2022-12-31T20:06:46.206Z,51.60
2022-12-31T20:09:14.175Z,51.07
2022-12-31T20:11:41.971Z,53.57
2022-12-31T20:14:10.105Z,47.80
2022-12-31T20:16:39.479Z,42.47
2022-12-31T20:19:07.358Z,55.97
2022-12-31T20:21:35.310Z,106.63
2022-12-31T20:24:03.401Z,50.07
2022-12-31T20:26:31.341Z,47.90
2022-12-31T20:28:59.191Z,59.60
2022-12-31T20:31:27.368Z,60.33
2022-12-31T20:33:56.884Z,46.43
2022-12-31T20:36:26.336Z,56.43
2022-12-31T20:38:54.255Z,55.40
2022-12-31T20:41:23.882Z,54.93
2022-12-31T20:43:52.048Z,54.43
2022-12-31T20:46:22.243Z,53.43
2022-12-31T20:48:52.277Z,51.53
2022-12-31T20:51:23.872Z,53.77
2022-12-31T20:53:55.131Z,79.40
2022-12-31T20:56:24.255Z,72.90
2022-12-31T20:58:52.053Z,56.77
2022-12-31T21:01:20.517Z,46.80
2022-12-31T21:04:07.042Z,44.83
2022-12-31T21:06:36.927Z,51.67
2022-12-31T21:09:08.109Z,50.40
2022-12-31T21:11:54.468Z,52.97
2022-12-31T21:14:26.352Z,49.53
2022-12-31T21:16:54.477Z,64.57
2022-12-31T21:19:22.356Z,64.90
2022-12-31T21:21:51.644Z,94.37
2022-12-31T21:24:23.795Z,58.43
2022-12-31T21:26:56.157Z,49.63
2022-12-31T21:29:24.559Z,54.10
2022-12-31T21:31:52.529Z,67.53
2022-12-31T21:34:20.426Z,61.83
2022-12-31T21:36:48.615Z,68.20
2022-12-31T21:39:17.949Z,65.33
2022-12-31T21:41:55.289Z,64.30
2022-12-31T21:44:24.656Z,61.63
2022-12-31T21:47:34.068Z,57.17
2022-12-31T21:49:44.632Z,52.83
2022-12-31T21:52:27.606Z,51.93
2022-12-31T21:55:16.000Z,44.57
2022-12-31T21:58:15.737Z,85.50
2022-12-31T22:00:50.261Z,71.83
2022-12-31T22:03:28.198Z,60.33
2022-12-31T22:05:59.748Z,46.80
2022-12-31T22:08:29.315Z,46.77
2022-12-31T22:10:58.534Z,42.33
2022-12-31T22:13:26.488Z,44.10
2022-12-31T22:16:03.902Z,47.43
2022-12-31T22:18:35.033Z,69.03
2022-12-31T22:21:05.243Z,65.73
2022-12-31T22:23:35.362Z,65.90
2022-12-31T22:26:07.614Z,46.70
2022-12-31T22:28:39.270Z,58.47
2022-12-31T22:31:08.181Z,54.07
2022-12-31T22:33:36.180Z,56.13
2022-12-31T22:36:06.171Z,60.40
2022-12-31T22:38:35.407Z,59.20
2022-12-31T22:41:07.929Z,64.37
2022-12-31T22:43:38.822Z,60.83
2022-12-31T22:46:08.606Z,86.33
2022-12-31T22:48:37.069Z,90.77
2022-12-31T22:51:05.293Z,76.20
2022-12-31T22:53:33.377Z,61.77
2022-12-31T22:56:01.285Z,60.30
2022-12-31T22:58:30.509Z,59.93
2022-12-31T23:00:58.339Z,57.00
2022-12-31T23:03:26.438Z,56.93
2022-12-31T23:05:54.417Z,89.30
2022-12-31T23:08:23.963Z,131.53
2022-12-31T23:11:05.746Z,154.90
2022-12-31T23:13:57.310Z,134.00
2022-12-31T23:16:44.660Z,124.03
2022-12-31T23:19:31.189Z,317.50
2022-12-31T23:22:16.846Z,305.20
2022-12-31T23:24:44.852Z,323.57
2022-12-31T23:27:13.195Z,310.77
2022-12-31T23:29:47.012Z,304.37
2022-12-31T23:32:16.437Z,287.93
2022-12-31T23:34:44.988Z,221.93
2022-12-31T23:37:13.424Z,233.33
2022-12-31T23:39:41.873Z,204.57
2022-12-31T23:42:10.057Z,223.77
2022-12-31T23:44:38.077Z,209.60
2022-12-31T23:47:07.331Z,183.03
2022-12-31T23:49:35.247Z,174.57
2022-12-31T23:52:03.396Z,179.50
2022-12-31T23:54:31.412Z,161.90
2022-12-31T23:56:59.273Z,156.23
2022-12-31T23:59:28.545Z,162.20
